createdAt,value
2023-02-06T00:09:29.201Z,100781.35
2023-02-06T00:19:36.323Z,100781.39
2023-02-06T00:29:43.512Z,100771.92
2023-02-06T00:39:50.652Z,100758.59
2023-02-06T00:49:57.767Z,100752.20
2023-02-06T01:00:04.079Z,100743.87
2023-02-06T01:10:10.004Z,100744.94
2023-02-06T01:20:17.386Z,100739.90
2023-02-06T01:30:24.723Z,100731.89
2023-02-06T01:40:31.936Z,100722.95
2023-02-06T01:50:42.979Z,100722.34
2023-02-06T02:00:51.863Z,100723.17
2023-02-06T02:11:00.110Z,100716.29
2023-02-06T02:21:49.995Z,100698.56
2023-02-06T02:32:28.213Z,100681.05
2023-02-06T02:42:41.268Z,100673.08
2023-02-06T02:52:47.709Z,100672.48
2023-02-06T03:02:57.319Z,100681.42
2023-02-06T03:13:03.272Z,100679.59
2023-02-06T03:23:13.190Z,100708.59
2023-02-06T03:33:21.004Z,100712.05
2023-02-06T03:43:30.837Z,100718.77
2023-02-06T03:53:40.184Z,100714.31
2023-02-06T04:03:47.456Z,100711.00
2023-02-06T04:13:54.576Z,100698.27
2023-02-06T04:24:01.871Z,100701.47
2023-02-06T04:34:09.257Z,100688.62
2023-02-06T04:44:16.450Z,100689.10
2023-02-06T04:54:23.784Z,100677.63
2023-02-06T05:04:29.805Z,100670.56
2023-02-06T05:14:36.837Z,100673.69
2023-02-06T05:24:43.855Z,100668.74
2023-02-06T05:34:51.141Z,100671.17
2023-02-06T05:44:58.539Z,100685.68
2023-02-06T05:55:05.847Z,100695.89
2023-02-06T06:05:12.848Z,100700.23
2023-02-06T06:15:17.872Z,100699.31
2023-02-06T06:25:25.002Z,100699.14
2023-02-06T06:35:32.409Z,100705.05
2023-02-06T06:45:39.863Z,100709.41
2023-02-06T06:55:47.735Z,100710.46
2023-02-06T07:05:55.091Z,100714.70
2023-02-06T07:16:02.378Z,100717.45
2023-02-06T07:26:10.193Z,100717.05
2023-02-06T07:36:18.638Z,100703.41
2023-02-06T07:46:26.938Z,100701.02
2023-02-06T07:56:34.096Z,100694.38
2023-02-06T08:06:44.088Z,100704.88
2023-02-06T08:16:51.889Z,100713.41
2023-02-06T08:27:00.231Z,100717.83
2023-02-06T08:37:07.678Z,100702.94
2023-02-06T08:47:15.080Z,100702.81
2023-02-06T08:57:22.248Z,100708.40
2023-02-06T09:07:32.158Z,100722.23
2023-02-06T09:17:39.690Z,100725.70
2023-02-06T09:27:47.608Z,100728.85
2023-02-06T09:37:54.815Z,100743.23
2023-02-06T09:48:05.272Z,100742.89
2023-02-06T09:58:16.270Z,100743.36
2023-02-06T10:08:23.343Z,100741.81
2023-02-06T10:18:29.046Z,100744.07
2023-02-06T10:28:37.153Z,100741.12
2023-02-06T10:39:07.997Z,100732.01
2023-02-06T10:49:15.534Z,100729.54
2023-02-06T10:59:22.720Z,100727.57
2023-02-06T11:09:30.955Z,100715.54
2023-02-06T11:19:43.062Z,100707.90
2023-02-06T11:29:52.378Z,100698.01
2023-02-06T11:40:15.756Z,100701.60
2023-02-06T11:50:25.029Z,100706.27
2023-02-06T12:00:32.504Z,100701.30
2023-02-06T12:10:49.936Z,100703.89
2023-02-06T12:20:59.399Z,100695.16
2023-02-06T12:31:08.455Z,100691.88
2023-02-06T12:41:18.901Z,100687.46
2023-02-06T12:51:27.600Z,100690.41
2023-02-06T13:01:49.031Z,100699.23
2023-02-06T13:12:07.476Z,100699.61
2023-02-06T13:22:45.396Z,100699.13
2023-02-06T13:32:53.505Z,100700.75
2023-02-06T13:42:58.334Z,100696.02
2023-02-06T13:53:12.899Z,100703.17
2023-02-06T14:03:23.001Z,100708.35
2023-02-06T14:13:35.476Z,100719.70
2023-02-06T14:23:44.746Z,100726.09
2023-02-06T14:34:04.530Z,100723.56
2023-02-06T14:44:13.147Z,100736.30
2023-02-06T14:54:29.488Z,100737.45
2023-02-06T15:04:45.767Z,100735.21
2023-02-06T15:14:53.922Z,100732.74
2023-02-06T15:25:06.345Z,100727.23
2023-02-06T15:35:19.406Z,100737.66
2023-02-06T15:45:30.285Z,100738.50
2023-02-06T15:55:39.467Z,100750.16
2023-02-06T16:05:46.910Z,100765.04
2023-02-06T16:16:19.535Z,100761.86
2023-02-06T16:26:28.928Z,100767.95
2023-02-06T16:36:34.592Z,100788.13
2023-02-06T16:46:42.275Z,100786.18
2023-02-06T16:56:50.185Z,100801.10
2023-02-06T17:06:58.237Z,100805.02
2023-02-06T17:17:05.421Z,100809.72
2023-02-06T17:27:16.572Z,100815.71
2023-02-06T17:37:23.317Z,100819.52
2023-02-06T17:47:30.578Z,100826.94
2023-02-06T17:57:37.278Z,100828.97
2023-02-06T18:07:44.617Z,100835.54
2023-02-06T18:17:52.095Z,100843.77
2023-02-06T18:27:59.222Z,100842.96
2023-02-06T18:38:06.118Z,100839.27
2023-02-06T18:48:14.704Z,100830.80
2023-02-06T18:58:22.448Z,100833.10
2023-02-06T19:08:28.072Z,100824.89
2023-02-06T19:18:38.947Z,100829.88
2023-02-06T19:28:48.965Z,100834.08
2023-02-06T19:38:57.322Z,100846.98
2023-02-06T19:49:06.246Z,100854.66
2023-02-06T19:59:13.929Z,100864.18
2023-02-06T20:09:22.819Z,100866.25
2023-02-06T20:19:29.214Z,100882.80
2023-02-06T20:29:39.177Z,100895.67
2023-02-06T20:39:46.871Z,100908.64
2023-02-06T20:49:51.500Z,100911.08
2023-02-06T20:59:58.907Z,100915.70
2023-02-06T21:20:13.980Z,100949.00
2023-02-06T21:30:20.494Z,100942.33
2023-02-06T21:40:28.185Z,100953.42
2023-02-06T21:50:38.155Z,100976.45
2023-02-06T22:00:43.589Z,100983.16
2023-02-06T22:10:50.762Z,100975.30
2023-02-06T22:21:03.377Z,100968.52
2023-02-06T22:31:08.348Z,100955.31
2023-02-06T22:41:18.078Z,100929.98
2023-02-06T22:51:24.094Z,100933.68
2023-02-06T23:01:33.364Z,100932.27
2023-02-06T23:11:39.093Z,100942.80
2023-02-06T23:21:47.729Z,100934.27
2023-02-06T23:42:01.939Z,100935.80
2023-02-06T23:52:08.084Z,100926.19
